createdAt,value
2018-05-13T00:00:54.739Z,11.00
2018-05-13T00:01:54.699Z,11.60
2018-05-13T00:02:54.657Z,11.60
2018-05-13T00:03:54.617Z,11.30
2018-05-13T00:04:54.576Z,10.90
2018-05-13T00:05:54.535Z,10.70
2018-05-13T00:06:54.496Z,11.20
2018-05-13T00:07:54.461Z,11.50
2018-05-13T00:08:54.412Z,11.50
2018-05-13T00:09:54.375Z,11.00
2018-05-13T00:10:54.334Z,11.50
2018-05-13T00:11:54.301Z,11.20
2018-05-13T00:12:54.259Z,11.40
2018-05-13T00:13:54.211Z,11.00
2018-05-13T00:14:54.173Z,11.00
2018-05-13T00:15:54.131Z,10.80
2018-05-13T00:16:54.090Z,11.30
2018-05-13T00:17:54.049Z,10.90
2018-05-13T00:18:54.010Z,11.80
2018-05-13T00:19:53.971Z,11.70
2018-05-13T00:20:53.928Z,11.10
2018-05-13T00:21:53.888Z,11.20
2018-05-13T00:22:53.848Z,11.20
2018-05-13T00:23:53.808Z,10.60
2018-05-13T00:24:53.774Z,10.90
2018-05-13T00:25:53.729Z,10.90
2018-05-13T00:26:53.689Z,11.10
2018-05-13T00:27:53.646Z,11.10
2018-05-13T00:28:53.605Z,11.20
2018-05-13T00:29:53.564Z,11.40
2018-05-13T00:30:53.528Z,11.00
2018-05-13T00:31:53.563Z,10.20
2018-05-13T00:32:53.444Z,11.00
2018-05-13T00:33:53.403Z,10.30
2018-05-13T00:34:53.362Z,11.10
2018-05-13T00:35:53.327Z,10.70
2018-05-13T00:36:53.280Z,10.60
2018-05-13T00:37:53.241Z,11.30
2018-05-13T00:38:53.205Z,10.60
2018-05-13T00:39:53.162Z,11.00
2018-05-13T00:40:53.122Z,11.30
2018-05-13T00:41:53.079Z,11.60
2018-05-13T00:42:53.043Z,11.60
2018-05-13T00:43:53.001Z,12.10
2018-05-13T00:44:52.957Z,11.60
2018-05-13T00:45:52.918Z,11.10
2018-05-13T00:46:52.876Z,12.10
2018-05-13T00:47:52.837Z,12.50
2018-05-13T00:48:52.796Z,12.20
2018-05-13T00:49:52.757Z,12.10
2018-05-13T00:50:52.718Z,12.30
2018-05-13T00:51:52.674Z,12.80
2018-05-13T00:52:52.634Z,12.60
2018-05-13T00:53:52.594Z,12.50
2018-05-13T00:54:52.623Z,12.60
2018-05-13T00:55:52.512Z,12.70
2018-05-13T00:56:52.473Z,12.50
2018-05-13T00:57:52.430Z,13.00
2018-05-13T00:58:52.392Z,12.80
2018-05-13T00:59:52.350Z,12.90
2018-05-13T01:00:52.311Z,13.10
2018-05-13T01:01:52.271Z,12.80
2018-05-13T01:02:52.274Z,12.80
2018-05-13T01:03:52.202Z,12.60
2018-05-13T01:04:52.148Z,13.40
2018-05-13T01:05:52.107Z,13.30
2018-05-13T01:06:52.066Z,13.50
2018-05-13T01:07:52.026Z,13.90
2018-05-13T01:08:51.984Z,13.80
2018-05-13T01:09:51.944Z,13.40
2018-05-13T01:10:51.906Z,13.80
2018-05-13T01:11:51.863Z,14.50
2018-05-13T01:12:51.825Z,13.90
2018-05-13T01:13:51.784Z,13.90
2018-05-13T01:14:51.741Z,14.30
2018-05-13T01:15:51.704Z,14.90
2018-05-13T01:16:51.663Z,15.60
2018-05-13T01:17:51.620Z,15.40
2018-05-13T01:18:51.579Z,14.60
2018-05-13T01:19:51.541Z,14.60
2018-05-13T01:20:51.498Z,14.60
2018-05-13T01:21:51.458Z,14.40
2018-05-13T01:22:51.420Z,15.60
2018-05-13T01:23:51.377Z,15.40
2018-05-13T01:24:51.340Z,14.50
2018-05-13T01:25:51.294Z,16.20
2018-05-13T01:26:51.255Z,15.90
2018-05-13T01:27:51.217Z,15.30
2018-05-13T01:28:51.173Z,15.40
2018-05-13T01:29:51.134Z,16.20
2018-05-13T01:30:51.091Z,15.70
2018-05-13T01:31:51.051Z,15.80
2018-05-13T01:32:51.016Z,16.40
2018-05-13T01:33:50.972Z,16.70
2018-05-13T01:34:50.931Z,15.90
2018-05-13T01:35:50.891Z,16.00
2018-05-13T01:36:50.848Z,16.50
2018-05-13T01:37:50.808Z,16.50
2018-05-13T01:38:50.769Z,16.40
2018-05-13T01:39:50.728Z,16.10
2018-05-13T01:40:50.688Z,16.80
2018-05-13T01:41:50.650Z,16.90
2018-05-13T01:42:50.604Z,16.90
2018-05-13T01:43:50.565Z,17.00
2018-05-13T01:44:50.525Z,16.80
2018-05-13T01:45:50.483Z,16.50
2018-05-13T01:46:50.444Z,16.80
2018-05-13T01:47:50.408Z,16.90
2018-05-13T01:48:50.366Z,16.90
2018-05-13T01:49:50.320Z,16.60
2018-05-13T01:50:50.280Z,16.60
2018-05-13T01:51:50.239Z,17.60
2018-05-13T01:52:50.199Z,16.60
2018-05-13T01:53:50.158Z,17.40
2018-05-13T01:54:50.121Z,17.20
2018-05-13T01:55:50.080Z,17.60
2018-05-13T01:56:50.037Z,17.60
2018-05-13T01:57:50.003Z,17.60
2018-05-13T01:58:49.955Z,18.10
2018-05-13T01:59:49.916Z,17.40
2018-05-13T02:00:49.872Z,17.80
2018-05-13T02:01:49.834Z,16.80
2018-05-13T02:02:49.792Z,18.60
2018-05-13T02:03:49.752Z,16.70
2018-05-13T02:04:49.724Z,17.20
2018-05-13T02:05:49.673Z,16.70
2018-05-13T02:06:49.631Z,17.40
2018-05-13T02:07:49.590Z,18.40
2018-05-13T02:08:49.551Z,18.10
2018-05-13T02:09:49.508Z,17.60
2018-05-13T02:10:49.469Z,17.70
2018-05-13T02:11:49.426Z,17.60
2018-05-13T02:12:49.385Z,17.80
2018-05-13T02:13:49.345Z,16.60
2018-05-13T02:14:49.308Z,16.80
2018-05-13T02:15:49.267Z,16.70
2018-05-13T02:16:49.224Z,17.00
2018-05-13T02:17:49.183Z,16.70
2018-05-13T02:18:49.144Z,16.90
2018-05-13T02:19:49.110Z,16.50
2018-05-13T02:20:49.060Z,16.30
2018-05-13T02:21:49.019Z,16.30
2018-05-13T02:22:48.980Z,16.60
2018-05-13T02:23:48.943Z,16.50
2018-05-13T02:24:48.906Z,16.90
2018-05-13T02:25:48.855Z,17.30
2018-05-13T02:26:48.816Z,15.90
2018-05-13T02:27:48.784Z,16.60
2018-05-13T02:28:48.739Z,16.70
2018-05-13T02:29:48.697Z,15.40
2018-05-13T02:30:48.653Z,15.90
2018-05-13T02:31:48.614Z,15.80
2018-05-13T02:32:48.575Z,16.30
2018-05-13T02:33:48.536Z,16.10
2018-05-13T02:34:48.494Z,16.20
2018-05-13T02:35:48.451Z,15.60
2018-05-13T02:36:48.417Z,16.50
2018-05-13T02:37:48.372Z,15.60
2018-05-13T02:38:48.328Z,16.40
2018-05-13T02:39:48.286Z,16.20
2018-05-13T02:40:48.245Z,17.00
2018-05-13T02:41:48.208Z,16.50
2018-05-13T02:42:48.171Z,15.40
2018-05-13T02:43:48.124Z,16.00
2018-05-13T02:44:48.083Z,15.10
2018-05-13T02:45:48.044Z,15.20
2018-05-13T02:46:48.009Z,15.60
2018-05-13T02:47:47.961Z,15.60
2018-05-13T02:48:47.922Z,15.70
2018-05-13T02:49:47.887Z,15.70
2018-05-13T02:50:47.839Z,15.20
2018-05-13T02:51:47.799Z,15.50
2018-05-13T02:52:47.758Z,14.80
2018-05-13T02:53:47.716Z,15.00
2018-05-13T02:54:47.675Z,15.80
2018-05-13T02:55:47.636Z,16.50
2018-05-13T02:56:47.592Z,16.20
2018-05-13T02:57:47.553Z,16.40
2018-05-13T02:58:47.514Z,16.20
2018-05-13T02:59:47.475Z,16.20
2018-05-13T03:00:47.432Z,17.20
2018-05-13T03:01:47.389Z,16.60
2018-05-13T03:02:47.353Z,16.20
2018-05-13T03:03:47.319Z,16.90
2018-05-13T03:04:47.267Z,16.80
2018-05-13T03:05:47.229Z,17.40
2018-05-13T03:06:47.244Z,17.20
2018-05-13T03:07:47.147Z,16.40
2018-05-13T03:08:47.111Z,15.90
2018-05-13T03:09:47.062Z,16.40
2018-05-13T03:10:47.028Z,16.60
2018-05-13T03:11:46.981Z,16.40
2018-05-13T03:12:46.945Z,16.90
2018-05-13T03:13:46.899Z,17.10
2018-05-13T03:14:46.860Z,17.30
2018-05-13T03:15:46.822Z,16.40
2018-05-13T03:16:46.777Z,16.60
2018-05-13T03:17:46.732Z,16.90
2018-05-13T03:18:46.691Z,16.70
2018-05-13T03:19:46.654Z,17.70
2018-05-13T03:20:46.609Z,17.20
2018-05-13T03:21:46.571Z,17.30
2018-05-13T03:22:46.529Z,16.80
2018-05-13T03:23:46.490Z,17.10
2018-05-13T03:24:46.446Z,17.00
2018-05-13T03:25:46.403Z,16.40
2018-05-13T03:26:46.364Z,16.30
2018-05-13T03:27:46.323Z,17.10
2018-05-13T03:28:46.280Z,16.20
2018-05-13T03:29:46.240Z,16.80
2018-05-13T03:30:46.199Z,16.10
2018-05-13T03:31:46.160Z,16.00
2018-05-13T03:32:46.119Z,16.60
2018-05-13T03:33:46.073Z,15.50
2018-05-13T03:34:46.035Z,15.60
2018-05-13T03:35:45.992Z,16.60
2018-05-13T03:36:45.956Z,15.80
2018-05-13T03:37:45.915Z,15.80
2018-05-13T03:38:45.866Z,16.80
2018-05-13T03:39:45.831Z,16.10
2018-05-13T03:40:45.788Z,17.10
2018-05-13T03:41:45.743Z,16.20
2018-05-13T03:42:45.702Z,16.60
2018-05-13T03:43:45.664Z,16.60
2018-05-13T03:44:45.620Z,15.90
2018-05-13T03:45:45.579Z,15.60
2018-05-13T03:46:45.539Z,15.60
2018-05-13T03:47:45.499Z,16.00
2018-05-13T03:48:45.456Z,16.40
2018-05-13T03:49:45.415Z,15.20
2018-05-13T03:50:45.375Z,16.50
2018-05-13T03:51:45.331Z,15.50
2018-05-13T03:52:45.288Z,16.40
2018-05-13T03:53:45.248Z,15.90
2018-05-13T03:54:45.212Z,14.80
2018-05-13T03:55:45.169Z,16.20
2018-05-13T03:56:45.126Z,15.20
2018-05-13T03:57:45.082Z,15.70
2018-05-13T03:58:45.042Z,15.60
2018-05-13T03:59:45.005Z,16.60
2018-05-13T04:00:44.961Z,16.00
2018-05-13T04:01:44.918Z,16.20
2018-05-13T04:02:44.875Z,15.90
2018-05-13T04:03:44.836Z,15.50
2018-05-13T04:04:44.794Z,14.60
2018-05-13T04:05:44.755Z,15.60
2018-05-13T04:06:44.713Z,15.60
2018-05-13T04:07:44.667Z,15.80
2018-05-13T04:08:44.627Z,16.20
2018-05-13T04:09:44.587Z,15.50
2018-05-13T04:10:44.544Z,15.60
2018-05-13T04:11:44.508Z,15.70
2018-05-13T04:12:44.465Z,15.90
2018-05-13T04:13:44.420Z,15.30
2018-05-13T04:14:44.378Z,16.10
2018-05-13T04:15:44.337Z,16.50
2018-05-13T04:16:44.294Z,16.30
2018-05-13T04:17:44.255Z,16.70
2018-05-13T04:18:44.217Z,16.80
2018-05-13T04:19:44.171Z,16.10
2018-05-13T04:20:44.129Z,16.70
2018-05-13T04:21:44.090Z,16.80
2018-05-13T04:22:44.048Z,16.70
2018-05-13T04:23:44.008Z,16.50
2018-05-13T04:24:43.964Z,16.50
2018-05-13T04:25:43.924Z,16.90
2018-05-13T04:26:43.885Z,16.30
2018-05-13T04:27:43.844Z,16.70
2018-05-13T04:28:43.796Z,17.90
2018-05-13T04:29:43.755Z,17.70
2018-05-13T04:30:43.715Z,16.90
2018-05-13T04:31:43.677Z,16.50
2018-05-13T04:32:43.636Z,17.60
2018-05-13T04:33:43.592Z,17.80
2018-05-13T04:34:43.550Z,17.00
2018-05-13T04:35:43.510Z,17.80
2018-05-13T04:36:43.466Z,17.20
2018-05-13T04:37:43.427Z,16.20
2018-05-13T04:38:43.385Z,16.10
2018-05-13T04:39:43.346Z,15.70
2018-05-13T04:40:43.304Z,16.10
2018-05-13T04:41:43.257Z,15.00
2018-05-13T04:42:43.220Z,15.60
2018-05-13T04:43:43.175Z,14.70
2018-05-13T04:44:43.132Z,14.70
2018-05-13T04:45:43.091Z,15.70
2018-05-13T04:46:43.050Z,15.20
2018-05-13T04:47:43.011Z,14.40
2018-05-13T04:48:42.969Z,14.00
2018-05-13T04:49:42.931Z,14.60
2018-05-13T04:50:42.885Z,14.40
2018-05-13T04:51:42.844Z,14.60
2018-05-13T04:52:42.802Z,14.40
2018-05-13T04:53:42.761Z,13.70
2018-05-13T04:54:42.718Z,14.60
2018-05-13T04:55:42.678Z,14.10
2018-05-13T04:56:42.637Z,14.00
2018-05-13T04:57:42.594Z,14.40
2018-05-13T04:58:42.557Z,13.80
2018-05-13T04:59:42.519Z,14.00
2018-05-13T05:00:42.471Z,13.50
2018-05-13T05:01:42.433Z,13.90
2018-05-13T05:02:42.392Z,13.00
2018-05-13T05:03:42.350Z,13.50
2018-05-13T05:04:42.316Z,14.10
2018-05-13T05:05:42.268Z,13.50
2018-05-13T05:06:42.235Z,13.80
2018-05-13T05:07:42.184Z,13.80
2018-05-13T05:08:42.144Z,14.50
2018-05-13T05:09:42.104Z,13.20
2018-05-13T05:10:42.064Z,13.30
2018-05-13T05:11:42.020Z,14.20
2018-05-13T05:12:41.979Z,13.90
2018-05-13T05:13:41.937Z,14.00
2018-05-13T05:14:41.899Z,13.10
2018-05-13T05:15:41.856Z,13.50
2018-05-13T05:16:41.813Z,13.40
2018-05-13T05:17:41.773Z,12.90
2018-05-13T05:18:41.731Z,13.60
2018-05-13T05:19:41.692Z,13.30
2018-05-13T05:20:41.652Z,14.20
2018-05-13T05:21:41.617Z,13.70
2018-05-13T05:22:41.571Z,13.50
2018-05-13T05:23:41.529Z,13.50
2018-05-13T05:24:41.485Z,13.00
2018-05-13T05:25:41.445Z,12.20
2018-05-13T05:26:41.406Z,11.80
2018-05-13T05:27:41.363Z,12.70
2018-05-13T05:28:41.324Z,12.70
2018-05-13T05:29:41.282Z,12.70
2018-05-13T05:30:41.242Z,11.50
2018-05-13T05:31:41.200Z,12.10
2018-05-13T05:32:41.161Z,12.10
2018-05-13T05:33:41.122Z,12.00
2018-05-13T05:34:41.078Z,11.50
2018-05-13T05:35:41.056Z,11.30
2018-05-13T05:36:40.999Z,11.50
2018-05-13T05:37:40.957Z,11.00
2018-05-13T05:38:40.918Z,11.40
2018-05-13T05:39:40.878Z,10.70
2018-05-13T05:40:40.836Z,10.70
2018-05-13T05:41:40.796Z,11.50
2018-05-13T05:42:40.757Z,11.30
2018-05-13T05:43:40.716Z,11.40
2018-05-13T05:44:40.674Z,11.30
2018-05-13T05:45:40.640Z,11.80
2018-05-13T05:46:40.592Z,11.80
2018-05-13T05:47:40.553Z,11.30
2018-05-13T05:48:40.517Z,11.80
2018-05-13T05:49:40.501Z,12.20
2018-05-13T05:50:40.443Z,12.00
2018-05-13T05:51:40.394Z,11.80
2018-05-13T05:52:40.353Z,11.60
2018-05-13T05:53:40.310Z,12.40
2018-05-13T05:54:40.273Z,11.30
2018-05-13T05:55:40.232Z,12.80
2018-05-13T05:56:40.191Z,12.10
2018-05-13T05:57:40.150Z,12.90
2018-05-13T05:58:40.113Z,12.60
2018-05-13T05:59:40.073Z,12.80
2018-05-13T06:00:40.034Z,13.00
2018-05-13T06:01:39.992Z,13.80
2018-05-13T06:02:39.949Z,13.50
2018-05-13T06:03:39.909Z,13.40
2018-05-13T06:04:39.872Z,14.20
2018-05-13T06:05:39.829Z,14.70
2018-05-13T06:06:39.800Z,15.80
2018-05-13T06:07:39.751Z,15.00
2018-05-13T06:08:39.709Z,15.00
2018-05-13T06:09:39.670Z,15.90
2018-05-13T06:10:39.632Z,15.10
2018-05-13T06:11:39.594Z,15.20
2018-05-13T06:12:39.551Z,15.50
2018-05-13T06:13:39.515Z,15.30
2018-05-13T06:14:39.473Z,14.90
2018-05-13T06:15:39.431Z,15.40
2018-05-13T06:16:39.393Z,14.70
2018-05-13T06:17:39.355Z,14.70
2018-05-13T06:18:39.314Z,16.20
2018-05-13T06:19:39.342Z,15.80
2018-05-13T06:20:39.240Z,15.50
2018-05-13T06:21:39.194Z,16.20
2018-05-13T06:22:39.154Z,16.60
2018-05-13T06:23:39.118Z,16.70
2018-05-13T06:24:39.074Z,17.00
2018-05-13T06:25:39.035Z,17.70
2018-05-13T06:26:38.999Z,16.90
2018-05-13T06:27:38.956Z,16.30
2018-05-13T06:28:38.917Z,16.60
2018-05-13T06:29:38.879Z,18.30
2018-05-13T06:30:38.841Z,19.10
2018-05-13T06:31:38.801Z,18.00
2018-05-13T06:32:38.760Z,18.90
2018-05-13T06:33:38.723Z,19.20
2018-05-13T06:34:38.682Z,18.50
2018-05-13T06:35:38.641Z,18.30
2018-05-13T06:36:38.600Z,18.70
2018-05-13T06:37:38.563Z,18.50
2018-05-13T06:38:38.522Z,18.30
2018-05-13T06:39:38.490Z,19.10
2018-05-13T06:40:38.447Z,19.40
2018-05-13T06:41:38.404Z,20.70
2018-05-13T06:42:38.367Z,20.50
2018-05-13T06:44:38.288Z,20.90
2018-05-13T06:45:38.267Z,21.50
2018-05-13T06:46:38.209Z,21.00
2018-05-13T06:47:38.172Z,21.40
2018-05-13T06:48:38.128Z,22.00
2018-05-13T06:49:38.100Z,22.10
2018-05-13T06:50:38.055Z,21.40
2018-05-13T06:51:38.013Z,23.30
2018-05-13T06:52:37.974Z,23.00
2018-05-13T06:53:37.938Z,22.90
2018-05-13T06:54:37.895Z,23.50
2018-05-13T06:55:37.858Z,23.00
2018-05-13T06:56:37.815Z,24.10
2018-05-13T06:57:37.784Z,22.90
2018-05-13T06:58:37.740Z,23.30
2018-05-13T06:59:37.700Z,23.60
2018-05-13T07:00:37.662Z,23.10
2018-05-13T07:01:37.623Z,23.50
2018-05-13T07:02:37.583Z,22.60
2018-05-13T07:03:37.549Z,23.40
2018-05-13T07:04:37.504Z,24.20
2018-05-13T07:05:37.465Z,25.10
2018-05-13T07:06:37.431Z,25.00
2018-05-13T07:07:37.388Z,26.10
2018-05-13T07:08:37.347Z,25.40
2018-05-13T07:09:37.313Z,26.20
2018-05-13T07:10:37.270Z,25.70
2018-05-13T07:11:37.241Z,26.10
2018-05-13T07:12:37.191Z,25.50
2018-05-13T07:13:37.159Z,26.80
2018-05-13T07:14:37.115Z,26.50
2018-05-13T07:15:37.083Z,27.20
2018-05-13T07:16:37.040Z,29.10
2018-05-13T07:17:36.997Z,26.90
2018-05-13T07:18:36.957Z,28.00
2018-05-13T07:19:36.920Z,28.30
2018-05-13T07:20:36.881Z,27.50
2018-05-13T07:21:36.845Z,28.10
2018-05-13T07:22:36.801Z,28.50
2018-05-13T07:23:36.763Z,27.60
2018-05-13T07:24:36.725Z,28.20
2018-05-13T07:25:36.690Z,28.90
2018-05-13T07:26:36.646Z,28.90
2018-05-13T07:27:36.610Z,28.80
2018-05-13T07:28:36.569Z,30.00
2018-05-13T07:29:36.533Z,31.40
2018-05-13T07:30:36.497Z,29.90
2018-05-13T07:31:36.456Z,29.50
2018-05-13T07:32:36.416Z,30.30
2018-05-13T07:33:36.382Z,30.40
2018-05-13T07:34:36.336Z,30.40
2018-05-13T07:35:36.309Z,31.30
2018-05-13T07:36:36.259Z,33.90
2018-05-13T07:37:36.224Z,34.60
2018-05-13T07:38:36.182Z,34.60
2018-05-13T07:39:36.146Z,34.30
2018-05-13T07:40:36.107Z,36.00
2018-05-13T07:41:36.069Z,34.30
2018-05-13T07:42:36.030Z,33.40
2018-05-13T07:43:35.991Z,34.80
2018-05-13T07:44:35.949Z,35.50
2018-05-13T07:45:35.915Z,34.30
2018-05-13T07:46:35.873Z,34.80
2018-05-13T07:47:35.836Z,34.70
2018-05-13T07:48:35.796Z,34.70
2018-05-13T07:49:35.761Z,34.90
2018-05-13T07:50:35.720Z,34.00
2018-05-13T07:51:35.680Z,34.20
2018-05-13T07:52:35.643Z,34.20
2018-05-13T07:53:35.606Z,34.30
2018-05-13T07:54:35.568Z,34.00
2018-05-13T07:55:35.533Z,34.50
2018-05-13T07:56:35.493Z,33.70
2018-05-13T07:57:35.453Z,33.70
2018-05-13T07:58:35.420Z,33.10
2018-05-13T07:59:35.377Z,34.10
2018-05-13T08:00:35.341Z,33.40
2018-05-13T08:01:35.306Z,33.50
2018-05-13T08:02:35.266Z,35.20
2018-05-13T08:03:35.229Z,32.80
2018-05-13T08:04:35.196Z,34.10
2018-05-13T08:05:35.154Z,33.20
2018-05-13T08:06:35.114Z,32.70
2018-05-13T08:07:35.076Z,33.90
2018-05-13T08:08:35.038Z,33.10
2018-05-13T08:09:34.998Z,34.10
2018-05-13T08:11:34.924Z,33.40
2018-05-13T08:12:34.890Z,33.70
2018-05-13T08:13:34.848Z,35.20
2018-05-13T08:14:34.812Z,34.30
2018-05-13T08:15:34.778Z,34.30
2018-05-13T08:16:34.734Z,36.50
2018-05-13T08:17:34.694Z,35.70
2018-05-13T08:18:34.659Z,36.30
2018-05-13T08:19:34.629Z,37.50
2018-05-13T08:20:34.716Z,37.30
2018-05-13T08:21:34.549Z,39.30
2018-05-13T08:22:34.511Z,40.60
2018-05-13T08:23:34.477Z,40.20
2018-05-13T08:24:34.434Z,40.80
2018-05-13T08:25:34.395Z,41.00
2018-05-13T08:26:34.367Z,39.10
2018-05-13T08:27:34.322Z,40.20
2018-05-13T08:28:34.282Z,38.00
2018-05-13T08:29:34.250Z,38.30
2018-05-13T08:30:34.211Z,36.20
2018-05-13T08:31:34.169Z,36.80
2018-05-13T08:32:34.134Z,36.30
2018-05-13T08:33:34.098Z,36.60
2018-05-13T08:34:34.062Z,35.50
2018-05-13T08:35:34.021Z,35.70
2018-05-13T08:36:33.985Z,37.20
2018-05-13T08:37:33.948Z,37.70
2018-05-13T08:38:33.910Z,37.40
2018-05-13T08:39:33.875Z,37.30
2018-05-13T08:40:33.833Z,37.60
2018-05-13T08:41:33.793Z,36.00
2018-05-13T08:42:33.763Z,36.90
2018-05-13T08:43:33.717Z,37.30
2018-05-13T08:44:33.681Z,36.30
2018-05-13T08:45:33.641Z,37.60
2018-05-13T08:46:33.608Z,38.60
2018-05-13T08:47:33.569Z,39.90
2018-05-13T08:48:33.611Z,38.50
2018-05-13T08:49:33.492Z,38.70
2018-05-13T08:50:33.455Z,39.10
2018-05-13T08:51:33.419Z,38.80
2018-05-13T08:52:33.382Z,40.20
2018-05-13T08:53:33.341Z,37.80
2018-05-13T08:54:33.304Z,37.20
2018-05-13T08:55:33.266Z,38.20
2018-05-13T08:56:33.227Z,37.40
2018-05-13T08:57:33.200Z,37.60
2018-05-13T08:58:33.153Z,37.30
2018-05-13T08:59:33.119Z,37.00
2018-05-13T09:00:33.078Z,37.10
2018-05-13T09:01:33.040Z,36.80
2018-05-13T09:02:33.003Z,36.70
2018-05-13T09:03:32.964Z,37.00
2018-05-13T09:04:32.926Z,38.00
2018-05-13T09:05:32.889Z,36.60
2018-05-13T09:06:32.856Z,36.80
2018-05-13T09:07:32.818Z,35.70
2018-05-13T09:08:32.835Z,36.20
2018-05-13T09:09:32.736Z,36.40
2018-05-13T09:10:32.696Z,36.90
2018-05-13T09:11:32.661Z,37.10
2018-05-13T09:12:32.618Z,36.80
2018-05-13T09:13:32.586Z,37.70
2018-05-13T09:14:32.541Z,36.90
2018-05-13T09:15:32.503Z,37.00
2018-05-13T09:16:32.466Z,36.60
2018-05-13T09:17:32.426Z,37.60
2018-05-13T09:18:32.385Z,37.70
2018-05-13T09:19:32.347Z,38.10
2018-05-13T09:20:32.394Z,38.10
2018-05-13T09:21:32.274Z,37.60
2018-05-13T09:22:32.232Z,39.90
2018-05-13T09:23:32.193Z,38.80
2018-05-13T09:24:32.157Z,38.90
2018-05-13T09:25:32.115Z,39.30
2018-05-13T09:26:32.167Z,40.30
2018-05-13T09:27:32.037Z,39.80
2018-05-13T09:28:31.998Z,40.40
2018-05-13T09:29:31.961Z,39.90
2018-05-13T09:30:31.924Z,40.10
2018-05-13T09:31:31.882Z,40.00
2018-05-13T09:32:31.843Z,41.00
2018-05-13T09:33:31.812Z,40.40
2018-05-13T09:34:31.764Z,39.40
2018-05-13T09:35:31.726Z,40.90
2018-05-13T09:36:31.686Z,41.50
2018-05-13T09:37:31.647Z,41.20
2018-05-13T09:38:31.609Z,40.90
2018-05-13T09:39:31.664Z,40.90
2018-05-13T09:40:31.532Z,42.10
2018-05-13T09:41:31.497Z,40.50
2018-05-13T09:42:31.453Z,42.10
2018-05-13T09:43:31.419Z,41.00
2018-05-13T09:44:31.375Z,42.40
2018-05-13T09:45:31.336Z,41.60
2018-05-13T09:46:31.300Z,40.70
2018-05-13T09:47:31.263Z,42.80
2018-05-13T09:48:31.219Z,43.50
2018-05-13T09:49:31.181Z,44.50
2018-05-13T09:50:31.144Z,47.20
2018-05-13T09:51:31.103Z,45.80
2018-05-13T09:52:31.065Z,47.10
2018-05-13T09:53:31.027Z,46.30
2018-05-13T09:54:30.991Z,47.80
2018-05-13T09:55:30.950Z,47.50
2018-05-13T09:56:30.909Z,47.50
2018-05-13T09:57:30.877Z,46.70
2018-05-13T09:58:30.833Z,46.50
2018-05-13T09:59:30.796Z,46.80
2018-05-13T10:00:30.756Z,46.00
2018-05-13T10:01:30.718Z,47.00
2018-05-13T10:02:30.680Z,49.10
2018-05-13T10:03:30.643Z,48.00
2018-05-13T10:04:30.601Z,48.80
2018-05-13T10:05:30.564Z,47.50
2018-05-13T10:06:30.522Z,48.70
2018-05-13T10:07:30.492Z,50.30
2018-05-13T10:08:30.446Z,49.50
2018-05-13T10:09:30.458Z,48.80
2018-05-13T10:10:30.370Z,48.40
2018-05-13T10:11:30.373Z,48.50
2018-05-13T10:12:30.289Z,49.30
2018-05-13T10:13:30.256Z,50.50
2018-05-13T10:14:30.214Z,51.90
2018-05-13T10:15:30.178Z,51.70
2018-05-13T10:16:30.154Z,53.60
2018-05-13T10:17:30.179Z,52.00
2018-05-13T10:18:30.107Z,51.80
2018-05-13T10:19:30.038Z,53.10
2018-05-13T10:20:29.980Z,51.30
2018-05-13T10:21:29.939Z,50.90
2018-05-13T10:22:29.902Z,52.80
2018-05-13T10:23:29.862Z,52.50
2018-05-13T10:24:29.824Z,54.10
2018-05-13T10:25:29.800Z,54.50
2018-05-13T10:26:29.747Z,53.50
2018-05-13T10:27:29.711Z,55.90
2018-05-13T10:28:29.666Z,57.20
2018-05-13T10:29:29.628Z,58.00
2018-05-13T10:30:29.589Z,58.20
2018-05-13T10:31:29.546Z,58.20
2018-05-13T10:32:29.509Z,58.40
2018-05-13T10:33:29.493Z,57.90
2018-05-13T10:34:29.436Z,58.60
2018-05-13T10:35:29.395Z,58.40
2018-05-13T10:36:29.406Z,58.60
2018-05-13T10:37:29.313Z,58.30
2018-05-13T10:38:29.276Z,57.10
2018-05-13T10:39:29.234Z,58.10
2018-05-13T10:40:29.195Z,58.70
2018-05-13T10:41:29.157Z,57.40
2018-05-13T10:42:29.132Z,57.60
2018-05-13T10:43:29.077Z,58.70
2018-05-13T10:44:29.035Z,57.10
2018-05-13T10:45:28.992Z,59.00
2018-05-13T10:46:28.953Z,59.20
2018-05-13T10:47:28.912Z,59.30
2018-05-13T10:48:28.872Z,58.70
2018-05-13T10:49:28.835Z,59.00
2018-05-13T10:50:28.794Z,57.70
2018-05-13T10:51:28.756Z,59.60
2018-05-13T10:52:28.712Z,59.60
2018-05-13T10:53:28.679Z,58.20
2018-05-13T10:54:28.636Z,59.10
2018-05-13T10:55:28.593Z,59.70
2018-05-13T10:56:28.558Z,60.00
2018-05-13T10:57:28.516Z,61.70
2018-05-13T10:58:28.514Z,61.00
2018-05-13T10:59:28.438Z,61.70
2018-05-13T11:00:28.399Z,60.90
2018-05-13T11:01:28.355Z,61.90
2018-05-13T11:02:28.315Z,60.40
2018-05-13T11:03:28.278Z,61.10
2018-05-13T11:04:28.239Z,60.20
2018-05-13T11:05:28.200Z,61.30
2018-05-13T11:06:28.161Z,59.60
2018-05-13T11:07:28.117Z,61.00
2018-05-13T11:08:28.072Z,62.60
2018-05-13T11:09:28.038Z,62.90
2018-05-13T11:10:27.993Z,61.90
2018-05-13T11:11:27.955Z,62.10
2018-05-13T11:12:27.913Z,63.50
2018-05-13T11:13:27.878Z,63.10
2018-05-13T11:14:27.833Z,62.00
2018-05-13T11:15:27.792Z,62.30
2018-05-13T11:16:27.757Z,61.60
2018-05-13T11:17:27.713Z,61.00
2018-05-13T11:18:27.672Z,59.60
2018-05-13T11:19:27.636Z,58.70
2018-05-13T11:20:27.592Z,59.60
2018-05-13T11:21:27.558Z,56.80
2018-05-13T11:22:27.514Z,56.90
2018-05-13T11:23:27.472Z,58.90
2018-05-13T11:24:27.435Z,58.60
2018-05-13T11:25:27.391Z,58.20
2018-05-13T11:26:27.354Z,59.70
2018-05-13T11:27:27.312Z,60.20
2018-05-13T11:28:27.269Z,61.20
2018-05-13T11:29:27.226Z,63.00
2018-05-13T11:30:27.187Z,64.40
2018-05-13T11:31:27.147Z,64.20
2018-05-13T11:32:27.106Z,64.50
2018-05-13T11:33:27.067Z,60.50
2018-05-13T11:34:27.024Z,59.40
2018-05-13T11:35:26.990Z,60.60
2018-05-13T11:36:26.945Z,62.50
2018-05-13T11:37:26.910Z,61.60
2018-05-13T11:38:26.865Z,63.70
2018-05-13T11:39:26.823Z,65.80
2018-05-13T11:40:26.796Z,63.20
2018-05-13T11:41:26.757Z,62.80
2018-05-13T11:42:26.707Z,62.80
2018-05-13T11:43:27.663Z,63.20
2018-05-13T11:44:26.621Z,63.50
2018-05-13T11:45:26.582Z,63.60
2018-05-13T11:46:26.539Z,64.90
2018-05-13T11:47:26.543Z,67.10
2018-05-13T11:48:26.458Z,65.00
2018-05-13T11:49:26.416Z,66.70
2018-05-13T11:50:26.378Z,67.50
2018-05-13T11:51:26.336Z,67.60
2018-05-13T11:52:26.292Z,67.60
2018-05-13T11:53:26.268Z,70.10
2018-05-13T11:54:26.217Z,69.10
2018-05-13T11:55:26.171Z,69.70
2018-05-13T11:56:26.201Z,70.30
2018-05-13T11:57:26.088Z,71.30
2018-05-13T11:58:26.265Z,71.20
2018-05-13T11:59:26.016Z,71.10
2018-05-13T12:00:25.967Z,70.10
2018-05-13T12:01:25.954Z,71.30
2018-05-13T12:02:25.981Z,72.40
2018-05-13T12:03:25.842Z,75.60
2018-05-13T12:04:25.801Z,74.80
2018-05-13T12:05:25.760Z,73.60
2018-05-13T12:06:25.720Z,76.50
2018-05-13T12:07:25.681Z,81.00
2018-05-13T12:08:25.640Z,76.00
2018-05-13T12:09:25.602Z,76.30
2018-05-13T12:10:25.558Z,80.50
2018-05-13T12:11:25.516Z,82.40
2018-05-13T12:12:25.474Z,80.40
2018-05-13T12:13:25.432Z,80.20
2018-05-13T12:14:25.393Z,76.40
2018-05-13T12:15:25.350Z,82.20
2018-05-13T12:16:25.312Z,83.70
2018-05-13T12:17:25.273Z,85.40
2018-05-13T12:18:25.229Z,81.70
2018-05-13T12:19:25.186Z,86.60
2018-05-13T12:20:25.147Z,82.00
2018-05-13T12:21:25.109Z,84.90
2018-05-13T12:22:25.131Z,86.50
2018-05-13T12:23:25.022Z,83.70
2018-05-13T12:24:24.981Z,81.40
2018-05-13T12:25:24.940Z,82.40
2018-05-13T12:26:24.904Z,81.70
2018-05-13T12:27:24.860Z,83.60
2018-05-13T12:28:24.814Z,84.00
2018-05-13T12:29:24.774Z,85.20
2018-05-13T12:30:24.733Z,86.40
2018-05-13T12:31:24.691Z,81.70
2018-05-13T12:32:24.649Z,86.70
2018-05-13T12:33:24.612Z,92.00
2018-05-13T12:34:24.575Z,87.50
2018-05-13T12:35:24.526Z,90.80
2018-05-13T12:36:24.483Z,84.30
2018-05-13T12:37:24.445Z,86.20
2018-05-13T12:38:24.401Z,87.70
2018-05-13T12:39:24.361Z,81.70
2018-05-13T12:40:24.317Z,84.90
2018-05-13T12:41:24.281Z,80.70
2018-05-13T12:42:24.237Z,76.50
2018-05-13T12:43:24.196Z,74.30
2018-05-13T12:44:28.207Z,76.40
2018-05-13T12:45:24.124Z,78.20
2018-05-13T12:46:24.072Z,73.50
2018-05-13T12:47:24.031Z,74.40
2018-05-13T12:48:23.986Z,73.40
2018-05-13T12:49:23.947Z,72.40
2018-05-13T12:50:23.904Z,70.60
2018-05-13T12:51:23.865Z,72.20
2018-05-13T12:52:23.822Z,73.20
2018-05-13T12:53:23.778Z,70.60
2018-05-13T12:54:23.740Z,68.60